sensor_id;sensor_type;location;lat;lon;timestamp;pressure;altitude;pressure_sealevel;temperature;humidity
50430;BME280;36359;41.556;-8.418;2024-01-27T00:01:50;61859.56;;;12.93;100.00
50430;BME280;36359;41.556;-8.418;2024-01-27T00:04:16;61860.63;;;12.94;100.00
50430;BME280;36359;41.556;-8.418;2024-01-27T00:06:42;61866.53;;;12.97;100.00
50430;BME280;36359;41.556;-8.418;2024-01-27T00:09:08;61878.25;;;13.11;100.00
50430;BME280;36359;41.556;-8.418;2024-01-27T00:11:33;61890.56;;;13.20;100.00
50430;BME280;36359;41.556;-8.418;2024-01-27T00:13:59;61894.28;;;13.26;100.00
50430;BME280;36359;41.556;-8.418;2024-01-27T00:16:25;61898.06;;;13.27;100.00
50430;BME280;36359;41.556;-8.418;2024-01-27T00:18:51;61892.69;;;13.27;99.71
50430;BME280;36359;41.556;-8.418;2024-01-27T00:21:16;61882.59;;;13.10;93.09
50430;BME280;36359;41.556;-8.418;2024-01-27T00:23:42;61876.63;;;13.12;94.74
50430;BME280;36359;41.556;-8.418;2024-01-27T00:26:08;61867.56;;;13.01;85.20
50430;BME280;36359;41.556;-8.418;2024-01-27T00:28:33;61871.34;;;13.02;81.59
50430;BME280;36359;41.556;-8.418;2024-01-27T00:30:59;61886.28;;;13.16;87.40
50430;BME280;36359;41.556;-8.418;2024-01-27T00:33:25;61922.66;;;13.51;99.75
50430;BME280;36359;41.556;-8.418;2024-01-27T00:35:51;61911.41;;;13.43;82.06
50430;BME280;36359;41.556;-8.418;2024-01-27T00:38:17;61904.47;;;13.33;77.31
50430;BME280;36359;41.556;-8.418;2024-01-27T00:40:43;61898.06;;;13.27;82.47
50430;BME280;36359;41.556;-8.418;2024-01-27T00:43:08;61882.53;;;13.15;79.65
50430;BME280;36359;41.556;-8.418;2024-01-27T00:45:34;61892.72;;;13.22;83.07
50430;BME280;36359;41.556;-8.418;2024-01-27T00:48:00;61890.56;;;13.20;84.92
50430;BME280;36359;41.556;-8.418;2024-01-27T00:50:25;61872.91;;;13.06;89.46
50430;BME280;36359;41.556;-8.418;2024-01-27T00:52:51;61872.91;;;13.06;81.08
50430;BME280;36359;41.556;-8.418;2024-01-27T00:55:17;61872.41;;;13.03;81.13
50430;BME280;36359;41.556;-8.418;2024-01-27T00:57:43;61871.34;;;13.02;91.47
50430;BME280;36359;41.556;-8.418;2024-01-27T01:00:10;61872.41;;;13.03;83.09
50430;BME280;36359;41.556;-8.418;2024-01-27T01:02:36;61859.06;;;12.87;80.79
50430;BME280;36359;41.556;-8.418;2024-01-27T01:05:02;61852.13;;;12.83;83.70
50430;BME280;36359;41.556;-8.418;2024-01-27T01:07:32;61841.44;;;12.70;83.71
50430;BME280;36359;41.556;-8.418;2024-01-27T01:09:58;61818.44;;;12.54;84.50
50430;BME280;36359;41.556;-8.418;2024-01-27T01:12:25;61822.22;;;12.55;86.27
50430;BME280;36359;41.556;-8.418;2024-01-27T01:14:52;61807.84;;;12.38;85.20
50430;BME280;36359;41.556;-8.418;2024-01-27T01:17:18;61843.56;;;12.75;100.00
50430;BME280;36359;41.556;-8.418;2024-01-27T01:19:43;61838.75;;;12.70;92.64
50430;BME280;36359;41.556;-8.418;2024-01-27T01:22:09;61827.56;;;12.60;86.73
50430;BME280;36359;41.556;-8.418;2024-01-27T01:24:35;61831.31;;;12.61;88.34
50430;BME280;36359;41.556;-8.418;2024-01-27T01:27:01;61814.22;;;12.44;86.91
50430;BME280;36359;41.556;-8.418;2024-01-27T01:29:26;61797.09;;;12.33;86.72
50430;BME280;36359;41.556;-8.418;2024-01-27T01:31:53;61786.44;;;12.20;88.67
50430;BME280;36359;41.556;-8.418;2024-01-27T01:34:18;61793.38;;;12.27;94.14
50430;BME280;36359;41.556;-8.418;2024-01-27T01:36:44;61797.13;;;12.31;100.00
50430;BME280;36359;41.556;-8.418;2024-01-27T01:39:11;61808.88;;;12.42;92.95
50430;BME280;36359;41.556;-8.418;2024-01-27T01:41:38;61796.59;;;12.30;91.07
50430;BME280;36359;41.556;-8.418;2024-01-27T01:44:05;61798.72;;;12.32;92.17
50430;BME280;36359;41.556;-8.418;2024-01-27T01:46:31;61789.09;;;12.23;91.08
50430;BME280;36359;41.556;-8.418;2024-01-27T01:48:56;61803.50;;;12.39;100.00
50430;BME280;36359;41.556;-8.418;2024-01-27T01:51:22;61795.56;;;12.26;92.43
50430;BME280;36359;41.556;-8.418;2024-01-27T01:53:49;61792.31;;;12.26;91.64
50430;BME280;36359;41.556;-8.418;2024-01-27T01:56:15;61788.56;;;12.22;91.24
50430;BME280;36359;41.556;-8.418;2024-01-27T01:58:41;61782.16;;;12.16;89.69
50430;BME280;36359;41.556;-8.418;2024-01-27T02:01:07;61764.03;;;11.99;87.63
50430;BME280;36359;41.556;-8.418;2024-01-27T02:03:33;61795.50;;;12.29;92.29
50430;BME280;36359;41.556;-8.418;2024-01-27T02:05:58;61776.28;;;12.11;88.72
50430;BME280;36359;41.556;-8.418;2024-01-27T02:08:24;61820.63;;;12.53;100.00
50430;BME280;36359;41.556;-8.418;2024-01-27T02:10:50;61814.72;;;12.50;93.07
50430;BME280;36359;41.556;-8.418;2024-01-27T02:13:20;61824.34;;;12.57;88.61
50430;BME280;36359;41.556;-8.418;2024-01-27T02:15:47;61829.16;;;12.61;82.47
50430;BME280;36359;41.556;-8.418;2024-01-27T02:18:13;61832.91;;;12.65;84.70
50430;BME280;36359;41.556;-8.418;2024-01-27T02:20:39;61829.69;;;12.62;80.14
50430;BME280;36359;41.556;-8.418;2024-01-27T02:23:05;61853.72;;;12.85;100.00
50430;BME280;36359;41.556;-8.418;2024-01-27T02:25:31;61874.00;;;13.04;100.00
50430;BME280;36359;41.556;-8.418;2024-01-27T02:27:57;61848.38;;;12.80;83.55
50430;BME280;36359;41.556;-8.418;2024-01-27T02:30:23;61854.22;;;12.88;90.56
50430;BME280;36359;41.556;-8.418;2024-01-27T02:32:49;61853.72;;;12.85;99.70
50430;BME280;36359;41.556;-8.418;2024-01-27T02:35:15;61869.16;;;13.02;100.00
50430;BME280;36359;41.556;-8.418;2024-01-27T02:37:41;61851.03;;;12.82;88.13
50430;BME280;36359;41.556;-8.418;2024-01-27T02:40:08;61838.22;;;12.70;87.21
50430;BME280;36359;41.556;-8.418;2024-01-27T02:42:35;61833.97;;;12.66;88.62
50430;BME280;36359;41.556;-8.418;2024-01-27T02:45:02;61832.91;;;12.65;94.97
50430;BME280;36359;41.556;-8.418;2024-01-27T02:47:27;61864.41;;;12.92;94.92
50430;BME280;36359;41.556;-8.418;2024-01-27T02:49:53;61830.22;;;12.62;88.37
50430;BME280;36359;41.556;-8.418;2024-01-27T02:52:19;61841.41;;;12.73;81.29
50430;BME280;36359;41.556;-8.418;2024-01-27T02:54:45;61851.03;;;12.82;77.32
50430;BME280;36359;41.556;-8.418;2024-01-27T02:57:11;61883.59;;;13.16;86.54
50430;BME280;36359;41.556;-8.418;2024-01-27T02:59:36;61876.69;;;13.07;80.60
50430;BME280;36359;41.556;-8.418;2024-01-27T03:02:05;61885.75;;;13.18;74.22
50430;BME280;36359;41.556;-8.418;2024-01-27T03:04:31;61875.56;;;13.11;77.20
50430;BME280;36359;41.556;-8.418;2024-01-27T03:06:57;61890.56;;;13.20;88.17
50430;BME280;36359;41.556;-8.418;2024-01-27T03:09:22;61888.44;;;13.18;77.74
50430;BME280;36359;41.556;-8.418;2024-01-27T03:11:48;61861.69;;;12.95;74.65
50430;BME280;36359;41.556;-8.418;2024-01-27T03:14:14;61878.28;;;13.08;74.86
50430;BME280;36359;41.556;-8.418;2024-01-27T03:16:40;61903.97;;;13.30;88.54
50430;BME280;36359;41.556;-8.418;2024-01-27T03:19:05;61880.94;;;13.11;80.52
50430;BME280;36359;41.556;-8.418;2024-01-27T03:21:32;61874.00;;;13.07;81.75
50430;BME280;36359;41.556;-8.418;2024-01-27T03:23:58;61869.75;;;13.00;89.46
50430;BME280;36359;41.556;-8.418;2024-01-27T03:26:23;61867.06;;;12.98;82.46
50430;BME280;36359;41.556;-8.418;2024-01-27T03:28:50;61891.06;;;13.23;90.80
50430;BME280;36359;41.556;-8.418;2024-01-27T03:31:16;61882.59;;;13.10;80.06
50430;BME280;36359;41.556;-8.418;2024-01-27T03:33:42;61874.50;;;13.07;76.17
50430;BME280;36359;41.556;-8.418;2024-01-27T03:36:11;61883.66;;;13.11;75.01
50430;BME280;36359;41.556;-8.418;2024-01-27T03:38:38;61890.56;;;13.20;74.12
50430;BME280;36359;41.556;-8.418;2024-01-27T03:41:05;61890.56;;;13.20;73.13
50430;BME280;36359;41.556;-8.418;2024-01-27T03:43:31;61892.72;;;13.22;74.48
50430;BME280;36359;41.556;-8.418;2024-01-27T03:45:57;61889.50;;;13.19;73.66
50430;BME280;36359;41.556;-8.418;2024-01-27T03:48:23;61889.50;;;13.19;72.08
50430;BME280;36359;41.556;-8.418;2024-01-27T03:50:49;61900.16;;;13.32;72.12
50430;BME280;36359;41.556;-8.418;2024-01-27T03:53:14;61899.13;;;13.31;73.04
50430;BME280;36359;41.556;-8.418;2024-01-27T03:55:40;61899.13;;;13.28;71.74
50430;BME280;36359;41.556;-8.418;2024-01-27T03:58:06;61888.94;;;13.21;73.39
50430;BME280;36359;41.556;-8.418;2024-01-27T04:00:32;61884.16;;;13.14;71.68
50430;BME280;36359;41.556;-8.418;2024-01-27T04:02:59;61886.84;;;13.14;72.87
50430;BME280;36359;41.556;-8.418;2024-01-27T04:05:25;61884.16;;;13.14;71.91
50430;BME280;36359;41.556;-8.418;2024-01-27T04:07:51;61883.09;;;13.13;73.69
50430;BME280;36359;41.556;-8.418;2024-01-27T04:10:18;61882.03;;;13.12;76.65
50430;BME280;36359;41.556;-8.418;2024-01-27T04:12:44;61880.97;;;13.08;73.43
50430;BME280;36359;41.556;-8.418;2024-01-27T04:15:10;61879.38;;;13.07;74.58
50430;BME280;36359;41.556;-8.418;2024-01-27T04:17:40;61888.44;;;13.18;85.45
50430;BME280;36359;41.556;-8.418;2024-01-27T04:20:07;61903.94;;;13.33;89.24
50430;BME280;36359;41.556;-8.418;2024-01-27T04:22:36;61885.19;;;13.17;87.15
50430;BME280;36359;41.556;-8.418;2024-01-27T04:25:02;61871.34;;;13.02;84.19
50430;BME280;36359;41.556;-8.418;2024-01-27T04:27:29;61853.19;;;12.84;81.74
50430;BME280;36359;41.556;-8.418;2024-01-27T04:29:55;61849.41;;;12.83;85.13
50430;BME280;36359;41.556;-8.418;2024-01-27T04:32:22;61845.69;;;12.80;83.57
50430;BME280;36359;41.556;-8.418;2024-01-27T04:34:48;61862.78;;;12.93;94.88
50430;BME280;36359;41.556;-8.418;2024-01-27T04:37:13;61858.00;;;12.86;87.99
50430;BME280;36359;41.556;-8.418;2024-01-27T04:39:39;61832.34;;;12.64;84.64
50430;BME280;36359;41.556;-8.418;2024-01-27T04:42:05;61848.91;;;12.80;89.33
50430;BME280;36359;41.556;-8.418;2024-01-27T04:44:35;61851.59;;;12.80;86.97
50430;BME280;36359;41.556;-8.418;2024-01-27T04:47:00;61832.34;;;12.64;83.44
50430;BME280;36359;41.556;-8.418;2024-01-27T04:49:27;61842.50;;;12.74;82.75
50430;BME280;36359;41.556;-8.418;2024-01-27T04:51:53;61853.19;;;12.84;77.37
50430;BME280;36359;41.556;-8.418;2024-01-27T04:54:18;61847.88;;;12.77;73.38
50430;BME280;36359;41.556;-8.418;2024-01-27T04:56:44;61873.47;;;13.04;73.27
50430;BME280;36359;41.556;-8.418;2024-01-27T04:59:10;61885.19;;;13.17;73.79
50430;BME280;36359;41.556;-8.418;2024-01-27T05:01:36;61895.38;;;13.25;82.33
50430;BME280;36359;41.556;-8.418;2024-01-27T05:04:01;61874.03;;;13.02;78.88
50430;BME280;36359;41.556;-8.418;2024-01-27T05:06:27;61858.53;;;12.89;78.10
50430;BME280;36359;41.556;-8.418;2024-01-27T05:08:53;61826.44;;;12.61;75.13
50430;BME280;36359;41.556;-8.418;2024-01-27T05:11:32;61839.84;;;12.71;77.50
50430;BME280;36359;41.556;-8.418;2024-01-27T05:13:58;61859.03;;;12.92;75.78
50430;BME280;36359;41.556;-8.418;2024-01-27T05:16:24;61862.28;;;12.90;71.24
50430;BME280;36359;41.556;-8.418;2024-01-27T05:21:19;61872.38;;;13.05;71.59
50430;BME280;36359;41.556;-8.418;2024-01-27T05:23:44;61855.31;;;12.86;70.34
50430;BME280;36359;41.556;-8.418;2024-01-27T05:26:10;61871.34;;;13.02;80.53
50430;BME280;36359;41.556;-8.418;2024-01-27T05:28:37;61870.78;;;13.04;78.41
50430;BME280;36359;41.556;-8.418;2024-01-27T05:31:07;61846.25;;;12.78;75.89
50430;BME280;36359;41.556;-8.418;2024-01-27T05:33:32;61830.75;;;12.63;75.42
50430;BME280;36359;41.556;-8.418;2024-01-27T05:35:58;61814.75;;;12.47;76.60
50430;BME280;36359;41.556;-8.418;2024-01-27T05:38:24;61806.72;;;12.40;75.65
50430;BME280;36359;41.556;-8.418;2024-01-27T05:40:51;61816.88;;;12.49;76.00
50430;BME280;36359;41.556;-8.418;2024-01-27T05:43:17;61816.88;;;12.49;75.33
50430;BME280;36359;41.556;-8.418;2024-01-27T05:45:43;61810.47;;;12.43;73.10
50430;BME280;36359;41.556;-8.418;2024-01-27T05:48:10;61809.94;;;12.40;73.11
50430;BME280;36359;41.556;-8.418;2024-01-27T05:50:36;61815.25;;;12.50;74.36
50430;BME280;36359;41.556;-8.418;2024-01-27T05:53:02;61825.41;;;12.58;75.19
50430;BME280;36359;41.556;-8.418;2024-01-27T05:55:28;61836.09;;;12.68;78.73
50430;BME280;36359;41.556;-8.418;2024-01-27T05:57:54;61826.47;;;12.59;72.68
50430;BME280;36359;41.556;-8.418;2024-01-27T06:00:22;61827.56;;;12.60;72.08
50430;BME280;36359;41.556;-8.418;2024-01-27T06:02:48;61822.72;;;12.58;72.53
50430;BME280;36359;41.556;-8.418;2024-01-27T06:05:14;61828.63;;;12.61;75.00
50430;BME280;36359;41.556;-8.418;2024-01-27T06:07:40;61828.63;;;12.61;73.28
50430;BME280;36359;41.556;-8.418;2024-01-27T06:10:09;61829.69;;;12.62;81.01
50430;BME280;36359;41.556;-8.418;2024-01-27T06:12:37;61816.88;;;12.49;74.53
50430;BME280;36359;41.556;-8.418;2024-01-27T06:15:03;61815.81;;;12.48;78.58
50430;BME280;36359;41.556;-8.418;2024-01-27T06:17:29;61811.53;;;12.44;73.48
50430;BME280;36359;41.556;-8.418;2024-01-27T06:19:55;61822.22;;;12.55;73.57
50430;BME280;36359;41.556;-8.418;2024-01-27T06:22:21;61836.66;;;12.66;81.84
50430;BME280;36359;41.556;-8.418;2024-01-27T06:24:46;61823.28;;;12.56;76.30
50430;BME280;36359;41.556;-8.418;2024-01-27T06:27:12;61827.03;;;12.59;80.27
50430;BME280;36359;41.556;-8.418;2024-01-27T06:29:38;61807.25;;;12.40;74.35
50430;BME280;36359;41.556;-8.418;2024-01-27T06:32:05;61811.53;;;12.44;73.24
50430;BME280;36359;41.556;-8.418;2024-01-27T06:34:32;61813.66;;;12.46;73.84
50430;BME280;36359;41.556;-8.418;2024-01-27T06:36:58;61830.75;;;12.63;77.02
50430;BME280;36359;41.556;-8.418;2024-01-27T06:39:23;61819.00;;;12.52;75.08
50430;BME280;36359;41.556;-8.418;2024-01-27T06:41:49;61820.63;;;12.50;91.03
50430;BME280;36359;41.556;-8.418;2024-01-27T06:44:15;61808.34;;;12.41;80.46
50430;BME280;36359;41.556;-8.418;2024-01-27T06:46:41;61809.41;;;12.40;75.39
50430;BME280;36359;41.556;-8.418;2024-01-27T06:49:06;61817.94;;;12.50;78.47
50430;BME280;36359;41.556;-8.418;2024-01-27T06:51:32;61830.75;;;12.63;74.98
50430;BME280;36359;41.556;-8.418;2024-01-27T06:53:58;61829.16;;;12.61;72.81
50430;BME280;36359;41.556;-8.418;2024-01-27T06:56:23;61845.72;;;12.77;71.80
50430;BME280;36359;41.556;-8.418;2024-01-27T06:58:49;61851.59;;;12.83;69.25
50430;BME280;36359;41.556;-8.418;2024-01-27T07:01:15;61868.63;;;13.02;74.81
50430;BME280;36359;41.556;-8.418;2024-01-27T07:03:41;61859.59;;;12.90;71.57
50430;BME280;36359;41.556;-8.418;2024-01-27T07:06:06;61863.88;;;12.94;74.25
50430;BME280;36359;41.556;-8.418;2024-01-27T07:08:32;61861.72;;;12.92;70.47
50430;BME280;36359;41.556;-8.418;2024-01-27T07:10:58;61857.97;;;12.91;71.90
50430;BME280;36359;41.556;-8.418;2024-01-27T07:13:24;61863.31;;;12.94;80.78
50430;BME280;36359;41.556;-8.418;2024-01-27T07:15:50;61856.38;;;12.87;75.39
50430;BME280;36359;41.556;-8.418;2024-01-27T07:18:15;61838.28;;;12.65;75.36
50430;BME280;36359;41.556;-8.418;2024-01-27T07:20:43;61813.09;;;12.48;75.93
50430;BME280;36359;41.556;-8.418;2024-01-27T07:23:09;61825.41;;;12.58;80.53
50430;BME280;36359;41.556;-8.418;2024-01-27T07:25:34;61817.41;;;12.50;78.67
50430;BME280;36359;41.556;-8.418;2024-01-27T07:28:00;61840.91;;;12.72;93.94
50430;BME280;36359;41.556;-8.418;2024-01-27T07:30:26;61821.69;;;12.52;76.83
50430;BME280;36359;41.556;-8.418;2024-01-27T07:32:51;61807.78;;;12.41;75.04
50430;BME280;36359;41.556;-8.418;2024-01-27T07:35:17;61803.00;;;12.36;76.28
50430;BME280;36359;41.556;-8.418;2024-01-27T07:37:43;61808.34;;;12.41;81.16
50430;BME280;36359;41.556;-8.418;2024-01-27T07:40:09;61807.84;;;12.38;85.33
50430;BME280;36359;41.556;-8.418;2024-01-27T07:42:35;61802.47;;;12.36;83.69
50430;BME280;36359;41.556;-8.418;2024-01-27T07:45:01;61786.44;;;12.20;80.90
50430;BME280;36359;41.556;-8.418;2024-01-27T07:47:26;61776.28;;;12.11;82.16
50430;BME280;36359;41.556;-8.418;2024-01-27T07:52:21;61785.91;;;12.20;85.39
50430;BME280;36359;41.556;-8.418;2024-01-27T07:54:47;61797.13;;;12.31;90.98
50430;BME280;36359;41.556;-8.418;2024-01-27T07:57:12;61798.72;;;12.32;88.38
50430;BME280;36359;41.556;-8.418;2024-01-27T07:59:38;61776.28;;;12.13;80.56
50430;BME280;36359;41.556;-8.418;2024-01-27T08:02:05;61761.34;;;11.96;81.29
50430;BME280;36359;41.556;-8.418;2024-01-27T08:04:30;61797.09;;;12.33;86.56
50430;BME280;36359;41.556;-8.418;2024-01-27T08:06:56;61797.66;;;12.31;80.52
50430;BME280;36359;41.556;-8.418;2024-01-27T08:09:22;61807.28;;;12.38;77.03
50430;BME280;36359;41.556;-8.418;2024-01-27T08:11:48;61806.16;;;12.44;84.20
50430;BME280;36359;41.556;-8.418;2024-01-27T08:14:18;61820.06;;;12.53;79.34
50430;BME280;36359;41.556;-8.418;2024-01-27T08:16:44;61813.13;;;12.46;75.92
50430;BME280;36359;41.556;-8.418;2024-01-27T08:19:09;61827.00;;;12.62;84.46
50430;BME280;36359;41.556;-8.418;2024-01-27T08:25:08;61872.34;;;13.08;72.66
50430;BME280;36359;41.556;-8.418;2024-01-27T08:27:34;61883.63;;;13.13;71.45
50430;BME280;36359;41.556;-8.418;2024-01-27T08:30:00;61868.63;;;13.02;70.09
50430;BME280;36359;41.556;-8.418;2024-01-27T08:32:31;61879.88;;;13.12;79.97
50430;BME280;36359;41.556;-8.418;2024-01-27T08:34:57;61864.41;;;12.95;75.95
50430;BME280;36359;41.556;-8.418;2024-01-27T08:37:22;61849.97;;;12.81;73.66
50430;BME280;36359;41.556;-8.418;2024-01-27T08:39:48;61849.94;;;12.84;72.87
50430;BME280;36359;41.556;-8.418;2024-01-27T08:42:19;61843.03;;;12.75;73.10
50430;BME280;36359;41.556;-8.418;2024-01-27T08:44:54;61856.94;;;12.85;71.95
50430;BME280;36359;41.556;-8.418;2024-01-27T08:47:42;61886.28;;;13.16;70.08
50430;BME280;36359;41.556;-8.418;2024-01-27T08:52:47;61886.25;;;13.21;73.99
50430;BME280;36359;41.556;-8.418;2024-01-27T08:55:14;61885.22;;;13.15;71.75
50430;BME280;36359;41.556;-8.418;2024-01-27T08:57:40;61881.47;;;13.14;74.51
50430;BME280;36359;41.556;-8.418;2024-01-27T09:00:06;61889.50;;;13.19;76.19
50430;BME280;36359;41.556;-8.418;2024-01-27T09:02:32;61904.47;;;13.33;74.34
50430;BME280;36359;41.556;-8.418;2024-01-27T09:04:58;61901.25;;;13.33;73.23
50430;BME280;36359;41.556;-8.418;2024-01-27T09:07:24;61916.25;;;13.45;72.91
50430;BME280;36359;41.556;-8.418;2024-01-27T09:09:49;61923.69;;;13.54;72.08
50430;BME280;36359;41.556;-8.418;2024-01-27T09:12:15;61948.81;;;13.78;76.63
50430;BME280;36359;41.556;-8.418;2024-01-27T09:14:41;61968.09;;;13.94;82.61
50430;BME280;36359;41.556;-8.418;2024-01-27T09:17:07;61953.66;;;13.80;78.94
50430;BME280;36359;41.556;-8.418;2024-01-27T09:19:32;61956.31;;;13.85;81.62
50430;BME280;36359;41.556;-8.418;2024-01-27T09:21:58;61942.41;;;13.72;82.80
50430;BME280;36359;41.556;-8.418;2024-01-27T09:24:24;61950.97;;;13.78;89.96
50430;BME280;36359;41.556;-8.418;2024-01-27T09:26:50;61952.56;;;13.79;87.13
50430;BME280;36359;41.556;-8.418;2024-01-27T09:29:16;61945.59;;;13.75;83.78
50430;BME280;36359;41.556;-8.418;2024-01-27T09:31:43;61976.59;;;14.05;91.25
50430;BME280;36359;41.556;-8.418;2024-01-27T09:34:08;61977.72;;;14.03;81.75
50430;BME280;36359;41.556;-8.418;2024-01-27T09:36:34;61981.44;;;14.07;84.10
50430;BME280;36359;41.556;-8.418;2024-01-27T09:39:00;61983.59;;;14.09;84.70
50430;BME280;36359;41.556;-8.418;2024-01-27T09:41:30;61983.53;;;14.12;86.76
50430;BME280;36359;41.556;-8.418;2024-01-27T09:44:01;61988.41;;;14.11;86.59
50430;BME280;36359;41.556;-8.418;2024-01-27T09:46:28;61979.84;;;14.05;87.86
50430;BME280;36359;41.556;-8.418;2024-01-27T09:48:55;61985.72;;;14.11;91.67
50430;BME280;36359;41.556;-8.418;2024-01-27T09:51:20;61980.91;;;14.09;91.70
50430;BME280;36359;41.556;-8.418;2024-01-27T09:53:46;61990.53;;;14.16;88.65
50430;BME280;36359;41.556;-8.418;2024-01-27T09:56:12;61988.38;;;14.16;88.64
50430;BME280;36359;41.556;-8.418;2024-01-27T09:58:43;61999.63;;;14.24;90.63
50430;BME280;36359;41.556;-8.418;2024-01-27T10:01:10;61997.47;;;14.25;90.38
50430;BME280;36359;41.556;-8.418;2024-01-27T10:03:40;62001.72;;;14.29;92.79
50430;BME280;36359;41.556;-8.418;2024-01-27T10:06:08;62014.06;;;14.38;93.80
50430;BME280;36359;41.556;-8.418;2024-01-27T10:08:34;62012.44;;;14.39;90.05
50430;BME280;36359;41.556;-8.418;2024-01-27T10:11:06;62021.56;;;14.45;90.86
50430;BME280;36359;41.556;-8.418;2024-01-27T10:13:33;62014.03;;;14.41;88.99
50430;BME280;36359;41.556;-8.418;2024-01-27T10:16:02;62023.16;;;14.47;88.68
50430;BME280;36359;41.556;-8.418;2024-01-27T10:18:28;62014.03;;;14.41;86.44
50430;BME280;36359;41.556;-8.418;2024-01-27T10:23:21;62032.25;;;14.56;89.37
50430;BME280;36359;41.556;-8.418;2024-01-27T10:25:46;62045.13;;;14.68;90.01
50430;BME280;36359;41.556;-8.418;2024-01-27T10:28:12;62045.56;;;14.73;91.55
50430;BME280;36359;41.556;-8.418;2024-01-27T10:30:38;62056.31;;;14.81;88.11
50430;BME280;36359;41.556;-8.418;2024-01-27T10:33:04;62069.69;;;14.94;88.21
50430;BME280;36359;41.556;-8.418;2024-01-27T10:35:30;62075.03;;;14.99;88.31
50430;BME280;36359;41.556;-8.418;2024-01-27T10:37:56;62083.06;;;15.07;86.72
50430;BME280;36359;41.556;-8.418;2024-01-27T10:40:22;62094.88;;;15.15;86.17
50430;BME280;36359;41.556;-8.418;2024-01-27T10:43:06;62098.06;;;15.21;85.08
50430;BME280;36359;41.556;-8.418;2024-01-27T10:45:40;62103.94;;;15.27;90.29
50430;BME280;36359;41.556;-8.418;2024-01-27T10:48:07;62108.78;;;15.29;92.01
50430;BME280;36359;41.556;-8.418;2024-01-27T10:50:36;62113.56;;;15.38;91.65
50430;BME280;36359;41.556;-8.418;2024-01-27T10:53:09;62117.84;;;15.40;91.44
50430;BME280;36359;41.556;-8.418;2024-01-27T10:55:35;62113.56;;;15.38;92.24
50430;BME280;36359;41.556;-8.418;2024-01-27T10:58:02;62113.03;;;15.35;91.78
50430;BME280;36359;41.556;-8.418;2024-01-27T11:00:29;62118.41;;;15.38;91.56
50430;BME280;36359;41.556;-8.418;2024-01-27T11:02:59;62131.81;;;15.51;90.64
50430;BME280;36359;41.556;-8.418;2024-01-27T11:05:30;62147.84;;;15.69;92.93
50430;BME280;36359;41.556;-8.418;2024-01-27T11:07:58;62184.84;;;16.01;85.28
50430;BME280;36359;41.556;-8.418;2024-01-27T11:10:26;62186.38;;;16.08;86.41
50430;BME280;36359;41.556;-8.418;2024-01-27T11:12:53;62189.59;;;16.11;89.13
50430;BME280;36359;41.556;-8.418;2024-01-27T11:15:21;62197.16;;;16.13;91.20
50430;BME280;36359;41.556;-8.418;2024-01-27T11:17:47;62196.63;;;16.12;90.78
50430;BME280;36359;41.556;-8.418;2024-01-27T11:20:13;62194.47;;;16.10;89.63
50430;BME280;36359;41.556;-8.418;2024-01-27T11:22:41;62203.59;;;16.19;88.48
50430;BME280;36359;41.556;-8.418;2024-01-27T11:27:42;62211.63;;;16.27;85.45
50430;BME280;36359;41.556;-8.418;2024-01-27T11:30:31;62218.56;;;16.36;86.73
50430;BME280;36359;41.556;-8.418;2024-01-27T11:33:02;62230.38;;;16.45;88.57
50430;BME280;36359;41.556;-8.418;2024-01-27T11:35:28;62231.41;;;16.48;89.37
50430;BME280;36359;41.556;-8.418;2024-01-27T11:37:54;62228.19;;;16.45;88.95
50430;BME280;36359;41.556;-8.418;2024-01-27T11:40:20;62239.00;;;16.50;87.88
50430;BME280;36359;41.556;-8.418;2024-01-27T11:43:00;62238.34;;;16.57;87.66
50430;BME280;36359;41.556;-8.418;2024-01-27T11:45:27;62249.63;;;16.66;86.89
50430;BME280;36359;41.556;-8.418;2024-01-27T11:47:56;62260.88;;;16.79;87.15
50430;BME280;36359;41.556;-8.418;2024-01-27T11:50:22;62258.78;;;16.72;87.08
50430;BME280;36359;41.556;-8.418;2024-01-27T11:52:51;62258.25;;;16.71;85.11
50430;BME280;36359;41.556;-8.418;2024-01-27T11:55:17;62267.34;;;16.83;83.85
50430;BME280;36359;41.556;-8.418;2024-01-27T11:57:44;62268.94;;;16.84;84.26
50430;BME280;36359;41.556;-8.418;2024-01-27T12:00:11;62279.09;;;16.96;84.64
50430;BME280;36359;41.556;-8.418;2024-01-27T12:02:40;62304.28;;;17.20;84.60
50430;BME280;36359;41.556;-8.418;2024-01-27T12:05:07;62314.47;;;17.30;84.66
50430;BME280;36359;41.556;-8.418;2024-01-27T12:07:33;62322.53;;;17.35;84.89
50430;BME280;36359;41.556;-8.418;2024-01-27T12:09:59;62330.59;;;17.43;85.67
50430;BME280;36359;41.556;-8.418;2024-01-27T12:12:25;62339.72;;;17.52;82.10
50430;BME280;36359;41.556;-8.418;2024-01-27T12:14:51;62367.63;;;17.78;78.96
50430;BME280;36359;41.556;-8.418;2024-01-27T12:17:18;62347.75;;;17.59;79.20
50430;BME280;36359;41.556;-8.418;2024-01-27T12:19:49;62362.72;;;17.76;78.44
50430;BME280;36359;41.556;-8.418;2024-01-27T12:22:22;62384.75;;;17.97;79.97
50430;BME280;36359;41.556;-8.418;2024-01-27T12:24:48;62382.09;;;17.95;80.15
50430;BME280;36359;41.556;-8.418;2024-01-27T12:27:15;62381.59;;;17.91;81.13
50430;BME280;36359;41.556;-8.418;2024-01-27T12:29:41;62386.94;;;17.97;80.02
50430;BME280;36359;41.556;-8.418;2024-01-27T12:32:07;62396.03;;;18.08;80.10
50430;BME280;36359;41.556;-8.418;2024-01-27T12:34:33;62404.69;;;18.11;80.17
50430;BME280;36359;41.556;-8.418;2024-01-27T12:36:58;62399.25;;;18.11;80.44
50430;BME280;36359;41.556;-8.418;2024-01-27T12:39:25;62405.69;;;18.17;80.87
50430;BME280;36359;41.556;-8.418;2024-01-27T12:41:51;62402.47;;;18.14;81.22
50430;BME280;36359;41.556;-8.418;2024-01-27T12:44:17;62399.81;;;18.09;83.54
50430;BME280;36359;41.556;-8.418;2024-01-27T12:46:43;62392.31;;;18.02;81.65
50430;BME280;36359;41.556;-8.418;2024-01-27T12:49:09;62404.59;;;18.16;81.87
50430;BME280;36359;41.556;-8.418;2024-01-27T12:51:34;62408.97;;;18.15;83.04
50430;BME280;36359;41.556;-8.418;2024-01-27T12:54:00;62410.00;;;18.19;82.85
50430;BME280;36359;41.556;-8.418;2024-01-27T12:56:26;62411.63;;;18.20;82.19
50430;BME280;36359;41.556;-8.418;2024-01-27T12:58:52;62426.66;;;18.34;81.49
50430;BME280;36359;41.556;-8.418;2024-01-27T13:01:18;62432.59;;;18.37;80.32
50430;BME280;36359;41.556;-8.418;2024-01-27T13:03:43;62439.53;;;18.47;79.56